SKG weather

Thessaloniki Macedonia International Airport
Thessaloniki, Thessaloniki, Greece

Public forecast

Using degrees Celsius for public forecast. Weather courtesy of forecast.io.

Current aviation weather report (METAR) for Thessaloniki Macedonia International Airport

Retrieved 2019/11/13 21:20 UTC (5 minutes ago):

LGTS 132120Z VRB02KT 9999 FEW025 14/12 Q1011 NOSIG

Aviation forecast (TAF) for Thessaloniki Macedonia International Airport

Retrieved 2019/11/13 18:12 UTC (3 hours ago):

TAF LGTS 131700Z 1318/1418 13012KT 9999 FEW010 SCT025 PROB30 1318/1410 7000 RA FEW010 BKN025 BECMG 1400/1402 VRB03KT PROB40 1402/1408 5000 BR SCT008 SCT020